createdAt,value
2022-08-05T00:01:35.481Z,75.61
2022-08-05T00:04:05.200Z,74.09
2022-08-05T00:06:36.462Z,73.52
2022-08-05T00:09:05.325Z,73.67
2022-08-05T00:11:49.613Z,72.77
2022-08-05T00:14:22.613Z,74.49
2022-08-05T00:16:54.860Z,75.55
2022-08-05T00:19:24.623Z,75.19
2022-08-05T00:21:54.264Z,74.37
2022-08-05T00:24:24.603Z,73.90
2022-08-05T00:26:57.659Z,74.00
2022-08-05T00:29:26.196Z,75.26
2022-08-05T00:32:12.615Z,75.52
2022-08-05T00:35:03.390Z,74.75
2022-08-05T00:37:50.449Z,74.22
2022-08-05T00:40:26.838Z,74.73
2022-08-05T00:42:59.560Z,75.85
2022-08-05T00:45:38.951Z,76.71
2022-08-05T00:48:27.717Z,77.70
2022-08-05T00:50:58.829Z,76.20
2022-08-05T00:53:45.007Z,75.49
2022-08-05T00:56:22.687Z,77.13
2022-08-05T00:58:50.212Z,77.34
2022-08-05T01:01:42.289Z,76.53
2022-08-05T01:04:14.287Z,76.68
2022-08-05T01:06:43.712Z,76.14
2022-08-05T01:09:15.231Z,75.77
2022-08-05T01:11:47.603Z,78.45
2022-08-05T01:14:32.215Z,78.02
2022-08-05T01:17:09.822Z,79.04
2022-08-05T01:20:01.880Z,78.52
2022-08-05T01:22:34.324Z,78.62
2022-08-05T01:25:41.159Z,79.50
2022-08-05T01:28:47.449Z,77.46
2022-08-05T01:31:44.996Z,76.61
2022-08-05T01:34:26.956Z,77.37
2022-08-05T01:37:20.209Z,77.09
2022-08-05T01:39:59.152Z,76.89
2022-08-05T01:42:30.606Z,76.32
2022-08-05T01:45:02.296Z,75.95
2022-08-05T01:47:39.490Z,75.77
2022-08-05T01:50:34.418Z,75.43
2022-08-05T01:53:11.490Z,75.99
2022-08-05T01:55:43.269Z,75.38
2022-08-05T01:58:15.585Z,76.89
2022-08-05T02:00:50.045Z,76.58
2022-08-05T02:03:31.823Z,76.14
2022-08-05T02:06:33.565Z,78.87
2022-08-05T02:08:57.897Z,78.98
2022-08-05T02:11:33.259Z,78.52
2022-08-05T02:14:13.748Z,78.38
2022-08-05T02:16:52.241Z,78.98
2022-08-05T02:19:35.257Z,80.50
2022-08-05T02:22:17.430Z,80.33
2022-08-05T02:25:02.350Z,81.14
2022-08-05T02:27:59.443Z,80.05
2022-08-05T02:30:22.866Z,79.46
2022-08-05T02:32:56.224Z,79.22
2022-08-05T02:35:28.259Z,78.53
2022-08-05T02:38:09.838Z,77.72
2022-08-05T02:40:44.159Z,77.05
2022-08-05T02:43:13.539Z,79.49
2022-08-05T02:45:52.879Z,80.35
2022-08-05T02:48:29.196Z,78.71
2022-08-05T02:51:02.135Z,78.61
2022-08-05T02:53:39.168Z,78.53
2022-08-05T02:56:16.029Z,78.28
2022-08-05T02:58:51.599Z,78.65
2022-08-05T03:01:29.828Z,78.09
2022-08-05T03:04:14.174Z,78.15
2022-08-05T03:06:56.561Z,77.97
2022-08-05T03:09:37.698Z,77.75
2022-08-05T03:12:11.216Z,77.69
2022-08-05T03:14:46.092Z,77.48
2022-08-05T03:17:21.659Z,77.54
2022-08-05T03:19:49.815Z,78.28
2022-08-05T03:22:19.145Z,78.45
2022-08-05T03:25:31.487Z,78.94
2022-08-05T03:28:00.048Z,78.31
2022-08-05T03:30:33.606Z,78.25
2022-08-05T03:33:07.471Z,78.38
2022-08-05T03:35:42.571Z,78.01
2022-08-05T03:38:17.852Z,77.44
2022-08-05T03:41:10.867Z,77.75
2022-08-05T03:44:08.040Z,77.51
2022-08-05T03:46:32.738Z,76.75
2022-08-05T03:49:00.076Z,77.76
2022-08-05T03:52:50.622Z,77.70
2022-08-05T03:55:52.265Z,77.22
2022-08-05T03:57:42.275Z,78.12
2022-08-05T04:00:16.438Z,78.58
2022-08-05T04:02:58.019Z,78.19
2022-08-05T04:05:33.895Z,77.85
2022-08-05T04:08:14.494Z,77.27
2022-08-05T04:10:56.908Z,77.43
2022-08-05T04:13:25.575Z,77.88
2022-08-05T04:16:04.789Z,77.76
2022-08-05T04:18:33.411Z,77.71
2022-08-05T04:21:02.504Z,78.09
2022-08-05T04:24:05.128Z,77.77
2022-08-05T04:26:19.061Z,77.65
2022-08-05T04:28:51.185Z,77.85
2022-08-05T04:31:20.063Z,77.41
2022-08-05T04:34:17.871Z,78.13
2022-08-05T04:36:49.457Z,77.38
2022-08-05T04:39:27.588Z,77.81
2022-08-05T04:41:55.455Z,77.74
2022-08-05T04:44:29.917Z,77.39
2022-08-05T04:47:08.779Z,77.58
2022-08-05T04:49:39.064Z,77.62
2022-08-05T04:52:23.279Z,77.26
2022-08-05T04:54:54.452Z,77.89
2022-08-05T04:57:28.942Z,78.01
2022-08-05T04:59:58.486Z,77.42
2022-08-05T05:02:37.169Z,78.01
2022-08-05T05:05:26.521Z,78.25
2022-08-05T05:08:02.084Z,78.25
2022-08-05T05:10:47.304Z,78.27
2022-08-05T05:13:23.374Z,78.37
2022-08-05T05:15:56.452Z,78.02
2022-08-05T05:18:31.461Z,77.80
2022-08-05T05:21:02.210Z,78.62
2022-08-05T05:23:39.057Z,79.25
2022-08-05T05:26:19.531Z,78.92
2022-08-05T05:28:55.769Z,79.87
2022-08-05T05:31:23.988Z,79.53
2022-08-05T05:33:59.214Z,77.61
2022-08-05T05:36:29.981Z,75.58
2022-08-05T05:38:57.904Z,74.40
2022-08-05T05:41:25.901Z,73.54
2022-08-05T05:44:27.007Z,73.83
2022-08-05T05:46:54.816Z,73.24
2022-08-05T05:49:24.814Z,73.08
2022-08-05T05:51:51.711Z,73.48
2022-08-05T05:54:50.659Z,72.08
2022-08-05T05:57:19.158Z,71.62
2022-08-05T05:59:47.866Z,72.50
2022-08-05T06:02:15.979Z,73.87
2022-08-05T06:04:43.946Z,73.31
2022-08-05T06:07:16.603Z,72.46
2022-08-05T06:10:00.883Z,71.30
2022-08-05T06:12:31.643Z,70.61
2022-08-05T06:15:01.639Z,69.79
2022-08-05T06:17:31.138Z,68.02
2022-08-05T06:19:59.536Z,67.28
2022-08-05T06:22:35.289Z,66.09
2022-08-05T06:25:59.641Z,65.64
2022-08-05T06:28:11.889Z,65.59
2022-08-05T06:30:48.194Z,64.02
2022-08-05T06:33:19.439Z,63.74
2022-08-05T06:36:09.286Z,62.56
2022-08-05T06:38:36.296Z,61.77
2022-08-05T06:41:05.078Z,61.66
2022-08-05T06:43:58.728Z,60.50
2022-08-05T06:46:22.194Z,59.02
2022-08-05T06:48:59.241Z,59.14
2022-08-05T06:51:29.801Z,58.81
2022-08-05T06:54:03.056Z,59.27
2022-08-05T06:56:34.176Z,59.08
2022-08-05T06:59:09.662Z,57.73
2022-08-05T07:01:37.100Z,57.24
2022-08-05T07:04:07.706Z,57.22
2022-08-05T07:06:34.579Z,57.46
2022-08-05T07:09:04.298Z,57.98
2022-08-05T07:11:37.184Z,57.52
2022-08-05T07:14:29.675Z,56.34
2022-08-05T07:18:01.400Z,55.86
2022-08-05T07:22:38.117Z,54.57
2022-08-05T07:25:22.921Z,54.04
2022-08-05T07:27:58.444Z,53.81
2022-08-05T07:30:38.979Z,53.88
2022-08-05T07:33:16.383Z,53.11
2022-08-05T07:36:04.716Z,52.76
2022-08-05T07:38:35.696Z,52.17
2022-08-05T07:42:08.573Z,51.29
2022-08-05T07:44:14.489Z,50.72
2022-08-05T07:46:48.184Z,50.21
2022-08-05T07:49:15.623Z,49.98
2022-08-05T07:51:52.913Z,49.65
2022-08-05T07:54:23.139Z,49.30
2022-08-05T07:57:02.527Z,48.37
2022-08-05T07:59:41.074Z,46.80
2022-08-05T08:02:16.891Z,45.87
2022-08-05T08:04:49.661Z,46.63
2022-08-05T08:07:22.657Z,46.77
2022-08-05T08:09:52.910Z,45.36
2022-08-05T08:12:35.310Z,45.60
2022-08-05T08:15:14.033Z,44.48
2022-08-05T08:17:49.718Z,45.61
2022-08-05T08:20:59.994Z,44.79
2022-08-05T08:24:00.487Z,44.87
2022-08-05T08:26:00.179Z,44.77
2022-08-05T08:28:36.066Z,45.46
2022-08-05T08:31:06.966Z,44.60
2022-08-05T08:33:37.529Z,44.88
2022-08-05T08:38:56.140Z,45.77
2022-08-05T08:41:52.562Z,45.61
2022-08-05T08:45:21.153Z,45.82
2022-08-05T08:47:22.334Z,45.45
2022-08-05T08:50:22.603Z,45.08
2022-08-05T08:52:53.901Z,44.06
2022-08-05T08:56:01.864Z,43.93
2022-08-05T08:58:13.188Z,43.03
2022-08-05T09:00:42.863Z,43.50
2022-08-05T09:03:11.977Z,42.70
2022-08-05T09:06:08.651Z,42.12
2022-08-05T09:08:30.443Z,41.50
2022-08-05T09:10:58.595Z,41.69
2022-08-05T09:13:31.737Z,41.46
2022-08-05T09:15:59.731Z,41.79
2022-08-05T09:18:27.132Z,41.49
2022-08-05T09:20:54.694Z,41.35
2022-08-05T09:23:22.910Z,41.14
2022-08-05T09:26:20.783Z,41.28
2022-08-05T09:28:49.497Z,40.45
2022-08-05T09:31:43.846Z,39.64
2022-08-05T09:34:07.320Z,39.51
2022-08-05T09:36:55.574Z,39.23
2022-08-05T09:39:41.426Z,39.49
2022-08-05T09:42:24.383Z,38.86
2022-08-05T09:44:57.512Z,38.72
2022-08-05T09:47:49.115Z,38.89
2022-08-05T09:50:38.914Z,38.93
2022-08-05T09:53:08.869Z,39.28
2022-08-05T09:55:56.859Z,39.56
2022-08-05T09:58:29.123Z,38.16
2022-08-05T10:01:15.072Z,38.72
2022-08-05T10:04:10.229Z,37.80
2022-08-05T10:06:40.913Z,37.18
2022-08-05T10:09:27.443Z,37.05
2022-08-05T10:12:18.566Z,36.29
2022-08-05T10:14:56.415Z,36.21
2022-08-05T10:17:37.840Z,35.89
2022-08-05T10:20:09.980Z,36.68
2022-08-05T10:22:48.600Z,36.69
2022-08-05T10:25:17.888Z,35.99
2022-08-05T10:28:13.775Z,35.58
2022-08-05T10:31:20.620Z,35.33
2022-08-05T10:33:29.746Z,35.80
2022-08-05T10:36:05.971Z,35.68
2022-08-05T10:38:35.708Z,34.63
2022-08-05T10:41:46.920Z,34.86
2022-08-05T10:44:19.455Z,34.98
2022-08-05T10:46:54.411Z,35.77
2022-08-05T10:49:26.838Z,35.46
2022-08-05T10:52:02.628Z,34.98
2022-08-05T10:55:04.534Z,35.64
2022-08-05T10:57:34.261Z,35.98
2022-08-05T11:00:19.331Z,35.45
2022-08-05T11:03:23.785Z,35.20
2022-08-05T11:06:16.032Z,35.92
2022-08-05T11:09:17.327Z,36.09
2022-08-05T11:11:53.469Z,35.86
2022-08-05T11:17:57.047Z,35.84
2022-08-05T11:20:45.352Z,35.49
2022-08-05T11:24:04.387Z,36.28
2022-08-05T11:26:43.529Z,35.29
2022-08-05T11:29:40.395Z,35.62
2022-08-05T11:32:28.831Z,34.84
2022-08-05T11:34:58.764Z,35.32
2022-08-05T11:38:37.399Z,34.95
2022-08-05T11:41:35.426Z,35.71
2022-08-05T11:44:40.650Z,35.16
2022-08-05T11:47:14.000Z,34.31
2022-08-05T11:49:43.398Z,33.18
2022-08-05T11:52:38.023Z,34.15
2022-08-05T11:55:07.786Z,33.72
2022-08-05T11:58:08.537Z,33.66
2022-08-05T12:00:31.922Z,33.00
2022-08-05T12:03:23.963Z,33.07
2022-08-05T12:06:06.381Z,32.75
2022-08-05T12:08:50.995Z,33.36
2022-08-05T12:11:40.162Z,33.97
2022-08-05T12:14:10.287Z,33.21
2022-08-05T12:16:46.409Z,33.03
2022-08-05T12:20:16.644Z,32.84
2022-08-05T12:22:09.543Z,32.98
2022-08-05T12:24:43.617Z,31.97
2022-08-05T12:27:32.872Z,31.90
2022-08-05T12:30:15.505Z,32.31
2022-08-05T12:32:51.115Z,31.27
2022-08-05T12:35:21.676Z,31.84
2022-08-05T12:37:49.657Z,32.14
2022-08-05T12:40:26.681Z,32.01
2022-08-05T12:42:56.187Z,30.57
2022-08-05T12:45:23.125Z,30.59
2022-08-05T12:48:27.141Z,30.56
2022-08-05T12:52:13.716Z,30.66
2022-08-05T12:54:26.496Z,29.78
2022-08-05T12:57:00.450Z,29.93
2022-08-05T13:00:08.863Z,30.88
2022-08-05T13:02:27.466Z,29.97
2022-08-05T13:04:57.692Z,29.66
2022-08-05T13:07:56.082Z,30.11
2022-08-05T13:10:19.561Z,29.35
2022-08-05T13:12:50.954Z,29.75
2022-08-05T13:15:41.721Z,29.58
2022-08-05T13:18:21.372Z,29.05
2022-08-05T13:20:53.540Z,29.13
2022-08-05T13:23:22.683Z,29.25
2022-08-05T13:25:59.288Z,29.43
2022-08-05T13:28:27.895Z,30.05
2022-08-05T13:31:14.148Z,30.67
2022-08-05T13:34:21.583Z,29.15
2022-08-05T13:36:29.445Z,29.17
2022-08-05T13:38:56.398Z,28.58
2022-08-05T13:41:35.778Z,29.46
2022-08-05T13:44:04.886Z,29.70
2022-08-05T13:46:44.364Z,29.08
2022-08-05T13:49:20.090Z,29.26
2022-08-05T13:51:48.324Z,29.00
2022-08-05T13:54:21.103Z,29.55
2022-08-05T13:56:52.900Z,29.22
2022-08-05T13:59:24.786Z,28.64
2022-08-05T14:01:58.883Z,28.73
2022-08-05T14:05:00.828Z,28.55
2022-08-05T14:08:00.206Z,27.86
2022-08-05T14:10:28.971Z,27.13
2022-08-05T14:12:58.789Z,26.64
2022-08-05T14:16:08.518Z,26.31
2022-08-05T14:18:18.418Z,26.41
2022-08-05T14:20:48.153Z,26.08
2022-08-05T14:23:25.403Z,25.78
2022-08-05T14:25:58.454Z,26.28
2022-08-05T14:28:30.219Z,26.00
2022-08-05T14:30:58.793Z,24.92
2022-08-05T14:33:56.802Z,23.94
2022-08-05T14:36:14.976Z,23.18
2022-08-05T14:38:42.098Z,23.73
2022-08-05T14:41:09.087Z,24.59
2022-08-05T14:43:53.822Z,25.34
2022-08-05T14:46:28.988Z,24.14
2022-08-05T14:49:08.048Z,22.51
2022-08-05T14:51:42.406Z,23.77
2022-08-05T14:54:27.771Z,25.15
2022-08-05T14:56:58.235Z,26.39
2022-08-05T14:59:29.220Z,26.76
2022-08-05T15:01:57.058Z,27.49
2022-08-05T15:04:27.287Z,28.02
2022-08-05T15:06:56.552Z,29.35
2022-08-05T15:09:51.817Z,30.35
2022-08-05T15:12:16.318Z,31.33
2022-08-05T15:14:50.198Z,31.55
2022-08-05T15:17:45.737Z,33.01
2022-08-05T15:20:17.033Z,35.14
2022-08-05T15:22:54.550Z,36.68
2022-08-05T15:25:40.957Z,36.86
2022-08-05T15:28:13.367Z,38.11
2022-08-05T15:30:45.566Z,39.83
2022-08-05T15:34:04.705Z,40.73
2022-08-05T15:36:03.667Z,42.45
2022-08-05T15:38:41.763Z,42.68
2022-08-05T15:41:21.100Z,43.37
2022-08-05T15:43:52.021Z,45.27
2022-08-05T15:46:24.606Z,46.59
2022-08-05T15:49:01.437Z,46.78
2022-08-05T15:52:13.683Z,47.67
2022-08-05T15:54:35.010Z,48.71
2022-08-05T15:57:16.315Z,49.04
2022-08-05T15:59:43.351Z,49.55
2022-08-05T16:02:25.428Z,49.81
2022-08-05T16:04:53.018Z,50.82
2022-08-05T16:07:23.034Z,51.17
2022-08-05T16:09:50.570Z,52.73
2022-08-05T16:12:21.036Z,53.52
2022-08-05T16:15:04.822Z,54.56
2022-08-05T16:17:31.856Z,54.57
2022-08-05T16:20:04.653Z,55.21
2022-08-05T16:22:34.776Z,55.98
2022-08-05T16:25:05.394Z,56.55
2022-08-05T16:27:47.218Z,56.67
2022-08-05T16:30:33.081Z,58.97
2022-08-05T16:33:01.621Z,61.94
2022-08-05T16:35:32.544Z,65.76
2022-08-05T16:38:24.489Z,65.14
2022-08-05T16:40:55.606Z,65.26
2022-08-05T16:43:32.752Z,66.27
2022-08-05T16:46:13.057Z,66.42
2022-08-05T16:48:49.906Z,67.26
2022-08-05T16:51:17.112Z,66.70
2022-08-05T16:54:03.479Z,66.35
2022-08-05T16:56:33.984Z,65.32
2022-08-05T16:59:09.201Z,64.13
2022-08-05T17:01:53.630Z,62.81
2022-08-05T17:04:27.600Z,62.35
2022-08-05T17:07:03.097Z,62.66
2022-08-05T17:09:57.194Z,63.11
2022-08-05T17:12:51.340Z,61.69
2022-08-05T17:15:19.213Z,61.52
2022-08-05T17:17:54.804Z,61.87
2022-08-05T17:20:22.454Z,61.94
2022-08-05T17:22:55.678Z,63.08
2022-08-05T17:25:33.748Z,63.81
2022-08-05T17:28:06.607Z,64.82
2022-08-05T17:30:50.346Z,63.96
2022-08-05T17:33:20.716Z,64.10
2022-08-05T17:36:08.945Z,64.38
2022-08-05T17:38:34.974Z,64.01
2022-08-05T17:41:02.006Z,65.90
2022-08-05T17:43:50.389Z,66.43
2022-08-05T17:46:25.255Z,66.74
2022-08-05T17:48:52.329Z,66.93
2022-08-05T17:51:21.579Z,67.74
2022-08-05T17:53:50.799Z,67.64
2022-08-05T17:56:21.723Z,67.90
2022-08-05T17:58:49.893Z,67.75
2022-08-05T18:01:18.585Z,66.84
2022-08-05T18:03:58.642Z,67.04
2022-08-05T18:06:31.244Z,67.70
2022-08-05T18:08:58.526Z,67.67
2022-08-05T18:11:33.273Z,67.37
2022-08-05T18:14:04.254Z,67.94
2022-08-05T18:16:35.262Z,68.51
2022-08-05T18:19:18.641Z,68.30
2022-08-05T18:22:09.823Z,68.41
2022-08-05T18:24:37.931Z,68.19
2022-08-05T18:27:18.105Z,67.71
2022-08-05T18:29:52.024Z,66.92
2022-08-05T18:32:27.965Z,66.47
2022-08-05T18:34:55.866Z,66.34
2022-08-05T18:37:34.591Z,66.38
2022-08-05T18:40:31.646Z,66.44
2022-08-05T18:42:56.799Z,66.75
2022-08-05T18:45:23.967Z,65.94
2022-08-05T18:47:56.670Z,65.78
2022-08-05T18:50:46.326Z,66.24
2022-08-05T18:53:20.652Z,66.18
2022-08-05T18:55:51.504Z,65.69
2022-08-05T18:58:29.075Z,65.60
2022-08-05T19:00:57.040Z,65.39
2022-08-05T19:03:52.769Z,65.34
2022-08-05T19:06:21.606Z,65.83
2022-08-05T19:08:49.171Z,66.43
2022-08-05T19:11:16.153Z,65.65
2022-08-05T19:14:01.005Z,66.03
2022-08-05T19:16:33.100Z,65.81
2022-08-05T19:19:14.309Z,66.12
2022-08-05T19:21:42.568Z,65.99
2022-08-05T19:24:12.267Z,66.71
2022-08-05T19:26:54.390Z,67.12
2022-08-05T19:29:35.777Z,66.57
2022-08-05T19:32:08.487Z,66.57
2022-08-05T19:34:35.894Z,66.18
2022-08-05T19:37:02.975Z,65.49
2022-08-05T19:39:30.287Z,65.13
2022-08-05T19:42:07.071Z,64.88
2022-08-05T19:44:45.304Z,64.53
2022-08-05T19:47:15.205Z,64.96
2022-08-05T19:49:46.095Z,64.93
2022-08-05T19:52:31.465Z,64.82
2022-08-05T19:55:07.681Z,65.32
2022-08-05T19:58:06.825Z,65.43
2022-08-05T20:00:41.826Z,65.34
2022-08-05T20:03:09.563Z,66.00
2022-08-05T20:05:50.361Z,65.93
2022-08-05T20:08:19.777Z,65.57
2022-08-05T20:10:49.801Z,66.04
2022-08-05T20:17:12.880Z,65.22
2022-08-05T20:19:43.260Z,65.66
2022-08-05T20:22:11.057Z,65.52
2022-08-05T20:24:38.363Z,65.54
2022-08-05T20:27:11.423Z,65.76
2022-08-05T20:29:39.620Z,66.04
2022-08-05T20:32:06.831Z,66.43
2022-08-05T20:34:33.707Z,67.37
2022-08-05T20:37:01.143Z,69.35
2022-08-05T20:39:36.368Z,72.58
2022-08-05T20:42:05.518Z,72.92
2022-08-05T20:44:37.765Z,73.33
2022-08-05T20:47:07.547Z,73.71
2022-08-05T20:49:38.067Z,74.35
2022-08-05T20:52:07.549Z,76.61
2022-08-05T20:54:42.430Z,77.73
2022-08-05T20:57:24.601Z,79.05
2022-08-05T21:00:41.617Z,79.72
2022-08-05T21:03:06.050Z,79.82
2022-08-05T21:05:48.414Z,81.06
2022-08-05T21:08:26.868Z,82.40
2022-08-05T21:11:10.153Z,83.34
2022-08-05T21:13:48.108Z,83.30
2022-08-05T21:16:29.139Z,83.48
2022-08-05T21:19:01.692Z,83.31
2022-08-05T21:21:43.768Z,86.45
2022-08-05T21:24:13.360Z,87.03
2022-08-05T21:26:45.964Z,88.22
2022-08-05T21:29:17.590Z,87.67
2022-08-05T21:31:44.366Z,88.08
2022-08-05T21:34:11.571Z,87.91
2022-08-05T21:36:39.214Z,86.85
2022-08-05T21:39:10.013Z,87.36
2022-08-05T21:41:42.029Z,88.15
2022-08-05T21:44:27.066Z,87.96
2022-08-05T21:46:57.937Z,85.71
2022-08-05T21:49:48.256Z,86.61
2022-08-05T21:52:22.825Z,87.37
2022-08-05T21:54:55.987Z,87.07
2022-08-05T21:57:31.423Z,87.58
2022-08-05T22:00:11.329Z,86.73
2022-08-05T22:02:38.988Z,86.86
2022-08-05T22:05:09.088Z,86.27
2022-08-05T22:07:54.251Z,86.61
2022-08-05T22:10:27.182Z,86.19
2022-08-05T22:12:58.726Z,86.68
2022-08-05T22:16:01.136Z,86.80
2022-08-05T22:18:14.422Z,86.80
2022-08-05T22:20:42.909Z,86.22
2022-08-05T22:24:00.838Z,86.19
2022-08-05T22:26:35.333Z,85.32
2022-08-05T22:29:02.858Z,86.03
2022-08-05T22:31:30.758Z,87.33
2022-08-05T22:34:11.464Z,86.26
2022-08-05T22:36:48.214Z,87.10
2022-08-05T22:39:21.388Z,88.31
2022-08-05T22:42:10.471Z,87.12
2022-08-05T22:44:35.422Z,87.27
2022-08-05T22:47:05.842Z,87.83
2022-08-05T22:50:20.401Z,88.91
2022-08-05T22:52:30.438Z,88.47
2022-08-05T22:55:01.784Z,88.27
2022-08-05T22:57:34.225Z,87.64
2022-08-05T23:00:07.936Z,86.90
2022-08-05T23:02:39.967Z,88.24
2022-08-05T23:05:14.946Z,87.64
2022-08-05T23:07:44.997Z,87.19
2022-08-05T23:10:12.774Z,87.06
2022-08-05T23:12:39.618Z,86.87
2022-08-05T23:15:09.122Z,88.23
2022-08-05T23:17:37.948Z,87.56
2022-08-05T23:20:24.418Z,87.79
2022-08-05T23:22:55.737Z,87.11
2022-08-05T23:25:52.817Z,87.60
2022-08-05T23:28:11.995Z,87.47
2022-08-05T23:30:43.954Z,86.77
2022-08-05T23:33:25.564Z,87.03
2022-08-05T23:36:10.240Z,86.92
2022-08-05T23:38:37.902Z,87.52
2022-08-05T23:41:04.936Z,87.48
2022-08-05T23:44:04.403Z,88.16
2022-08-05T23:46:21.336Z,86.99
2022-08-05T23:49:00.720Z,87.01
2022-08-05T23:51:53.506Z,87.97
2022-08-05T23:54:30.224Z,88.18
2022-08-05T23:57:04.724Z,88.15
